Time;durP1;ratioP1;P1;durP2;ratioP2;P2;SDS_P1;SDS_P2;PMS_P1;PMS_P2;Temp;Humidity;BMP_temperature;BMP_pressure;BME280_temperature;BME280_humidity;BME280_pressure;Samples;Min_cycle;Max_cycle;Signal;HPM_P1;HPM_P2
2022/08/21 00:01:45;;;;;;;14.32;4.45;;;20.20;99.90;;;-147.18;100.00;67318.16;5003687;28;20053;-83
2022/08/21 00:04:13;;;;;;;9.90;4.05;;;20.20;99.90;;;-147.18;100.00;67318.16;5011668;28;20133;-84
2022/08/21 00:06:40;;;;;;;8.77;3.90;;;20.20;99.90;;;-147.18;100.00;67318.16;5011668;28;20037;-83
2022/08/21 00:09:09;;;;;;;7.13;3.60;;;20.20;99.90;;;-147.18;100.00;67318.16;5012036;28;20120;-83
2022/08/21 00:11:39;;;;;;;7.68;3.60;;;20.20;99.90;;;-147.18;100.00;67318.16;5006135;28;20565;-83
2022/08/21 00:14:09;;;;;;;8.02;3.97;;;20.10;99.90;;;-147.18;100.00;67318.16;5001589;28;20639;-83
2022/08/21 00:16:37;;;;;;;10.68;4.35;;;20.10;99.90;;;-147.18;100.00;67318.16;5003798;28;20492;-83
2022/08/21 00:19:05;;;;;;;7.93;4.40;;;20.10;99.90;;;-147.18;100.00;67318.16;5015972;28;20050;-83
2022/08/21 00:21:33;;;;;;;9.93;4.43;;;20.00;99.90;;;-147.18;100.00;67318.16;5010593;28;20060;-83
2022/08/21 00:24:01;;;;;;;11.60;4.57;;;20.10;99.90;;;-147.18;100.00;67318.16;5014608;28;20453;-83
2022/08/21 00:26:29;;;;;;;10.43;4.28;;;20.00;99.90;;;-147.18;100.00;67318.16;5010797;28;20053;-83
2022/08/21 00:28:57;;;;;;;9.25;4.53;;;20.00;99.90;;;-147.18;100.00;67318.16;5013842;28;20059;-83
2022/08/21 00:31:24;;;;;;;11.95;4.68;;;20.00;99.90;;;-147.18;100.00;67318.16;5008555;28;20041;-83
2022/08/21 00:33:51;;;;;;;11.05;4.65;;;19.90;99.90;;;-147.18;100.00;67318.16;5015652;28;20428;-83
2022/08/21 00:36:18;;;;;;;9.88;4.20;;;19.90;99.90;;;-147.18;100.00;67318.16;5010732;28;20107;-83
2022/08/21 00:38:46;;;;;;;11.40;4.57;;;19.90;99.90;;;-147.18;100.00;67318.16;5012019;28;20048;-84
2022/08/21 00:41:13;;;;;;;8.25;4.18;;;19.80;99.90;;;-147.18;100.00;67318.16;5011762;28;20034;-84
2022/08/21 00:43:41;;;;;;;12.38;4.63;;;19.80;99.90;;;-147.18;100.00;67318.16;5003997;28;20050;-83
2022/08/21 00:46:09;;;;;;;12.52;4.82;;;19.80;99.90;;;-147.18;100.00;67318.16;5006258;28;20396;-83
2022/08/21 00:48:36;;;;;;;7.30;4.22;;;19.80;99.90;;;-147.18;100.00;67318.16;5006516;28;20080;-84
2022/08/21 00:51:09;;;;;;;7.97;4.18;;;19.80;99.90;;;-147.18;100.00;67318.16;5010397;28;20037;-84
2022/08/21 00:53:39;;;;;;;8.23;4.30;;;19.80;99.90;;;-147.18;100.00;67318.16;5009202;28;20065;-83
2022/08/21 00:56:09;;;;;;;8.90;4.32;;;19.70;99.90;;;-147.18;100.00;67318.16;5008391;28;20052;-83
2022/08/21 00:58:38;;;;;;;9.30;4.57;;;19.70;99.90;;;-147.18;100.00;67318.16;5008779;28;20132;-83
2022/08/21 01:01:08;;;;;;;12.95;4.60;;;19.70;99.90;;;-147.18;100.00;67318.16;4998864;28;20514;-84
2022/08/21 01:03:36;;;;;;;6.30;4.33;;;19.80;99.90;;;-147.18;100.00;67318.16;5003812;28;20038;-83
2022/08/21 01:06:06;;;;;;;8.63;4.70;;;19.70;99.90;;;-147.18;100.00;67318.16;5010290;28;20319;-83
2022/08/21 01:08:34;;;;;;;14.82;4.72;;;19.70;99.90;;;-147.18;100.00;67318.16;5002470;28;20494;-83
2022/08/21 01:11:03;;;;;;;9.25;4.65;;;19.70;99.90;;;-147.18;100.00;67318.16;5013840;28;20121;-83
2022/08/21 01:13:33;;;;;;;12.05;5.20;;;19.70;99.90;;;-147.18;100.00;67318.16;5010656;28;20483;-84
2022/08/21 01:16:04;;;;;;;9.48;4.53;;;19.70;99.90;;;-147.18;100.00;67318.16;5010075;28;20494;-84
2022/08/21 01:18:33;;;;;;;8.93;4.47;;;19.70;99.90;;;-147.18;100.00;67318.16;5010134;28;20038;-83
2022/08/21 01:21:09;;;;;;;11.13;4.80;;;19.70;99.90;;;-147.18;100.00;67318.16;5008073;28;20042;-83
2022/08/21 01:23:38;;;;;;;9.98;4.55;;;19.70;99.90;;;-147.18;100.00;67318.16;5014295;28;20052;-84
2022/08/21 01:26:08;;;;;;;10.70;4.68;;;19.60;99.90;;;-147.18;100.00;67318.16;5017876;28;20120;-84
2022/08/21 01:28:41;;;;;;;8.43;4.82;;;19.60;99.90;;;-147.18;100.00;67318.16;5012676;28;20517;-83
2022/08/21 01:31:11;;;;;;;9.00;4.38;;;19.60;99.90;;;-147.18;100.00;67318.16;5003782;28;20038;-83
2022/08/21 01:33:38;;;;;;;9.18;4.63;;;19.60;99.90;;;-147.18;100.00;67318.16;5006004;28;20519;-82
2022/08/21 01:36:08;;;;;;;7.53;4.32;;;19.50;99.90;;;-147.18;100.00;67318.16;5005121;28;20109;-82
2022/08/21 01:38:35;;;;;;;8.77;4.63;;;19.50;99.90;;;-147.18;100.00;67318.16;5009947;28;20042;-82
2022/08/21 01:41:02;;;;;;;9.80;5.00;;;19.50;99.90;;;-147.18;100.00;67318.16;5002241;28;20492;-83
2022/08/21 01:43:30;;;;;;;9.45;4.50;;;19.50;99.90;;;-147.18;100.00;67318.16;5010644;28;20144;-83
2022/08/21 01:45:57;;;;;;;11.48;5.15;;;19.40;99.90;;;-147.18;100.00;67318.16;5013074;28;20084;-83
2022/08/21 01:48:24;;;;;;;15.48;5.10;;;19.40;99.90;;;-147.18;100.00;67318.16;5009831;28;20038;-82
2022/08/21 01:50:51;;;;;;;7.93;4.45;;;19.40;99.90;;;-147.18;100.00;67318.16;5017852;28;20045;-82
2022/08/21 01:53:20;;;;;;;9.80;5.00;;;19.40;99.90;;;-147.18;100.00;67318.16;5003159;28;20112;-82
2022/08/21 01:55:47;;;;;;;9.38;5.35;;;19.30;99.90;;;-147.18;100.00;67318.16;5013518;28;20044;-82
2022/08/21 01:58:14;;;;;;;8.38;4.78;;;19.30;99.90;;;-147.18;100.00;67318.16;5009418;28;20050;-83
2022/08/21 02:00:41;;;;;;;10.80;4.78;;;19.20;99.90;;;-147.18;100.00;67318.16;5014459;28;20034;-82
2022/08/21 02:03:08;;;;;;;12.48;5.32;;;19.20;99.90;;;-147.18;100.00;67318.16;5003450;28;20402;-82
2022/08/21 02:05:36;;;;;;;10.85;5.55;;;19.20;99.90;;;-147.18;100.00;67318.16;5009904;28;20049;-82
2022/08/21 02:08:03;;;;;;;9.93;5.40;;;19.20;99.90;;;-147.18;100.00;67318.16;5008307;28;20084;-82
2022/08/21 02:10:33;;;;;;;13.05;5.18;;;19.10;99.90;;;-147.18;100.00;67318.16;5012670;28;20045;-82
2022/08/21 02:13:01;;;;;;;12.15;5.20;;;19.10;99.90;;;-147.18;100.00;67318.16;5011900;28;20120;-82
2022/08/21 02:15:30;;;;;;;8.35;5.10;;;19.10;99.90;;;-147.18;100.00;67318.16;4999306;28;20038;-82
2022/08/21 02:18:01;;;;;;;9.02;5.35;;;19.10;99.90;;;-147.18;100.00;67318.16;4995194;28;20050;-82
2022/08/21 02:20:35;;;;;;;10.75;5.70;;;19.00;99.90;;;-147.18;100.00;67318.16;4999957;28;20050;-83
2022/08/21 02:23:03;;;;;;;13.35;5.57;;;19.00;99.90;;;-147.18;100.00;67318.16;5013106;28;20050;-83
2022/08/21 02:25:32;;;;;;;10.25;5.28;;;19.00;99.90;;;-147.18;100.00;67318.16;5014760;28;20495;-82
2022/08/21 02:28:04;;;;;;;12.20;5.65;;;19.00;99.90;;;-147.18;100.00;67318.16;5012318;28;20037;-82
2022/08/21 02:30:34;;;;;;;10.60;4.80;;;19.00;99.90;;;-147.18;100.00;67318.16;5022145;28;20066;-82
2022/08/21 02:33:01;;;;;;;11.70;5.20;;;18.90;99.90;;;-147.18;100.00;67318.16;5017423;28;20045;-83
2022/08/21 02:35:32;;;;;;;11.52;5.10;;;18.90;99.90;;;-147.18;100.00;67318.16;5030267;23;20292;-88
2022/08/21 02:38:05;;;;;;;8.05;4.60;;;18.90;99.90;;;-147.18;100.00;67318.16;5031045;28;20041;-88
2022/08/21 02:40:39;;;;;;;9.90;4.95;;;18.90;99.90;;;-147.18;100.00;67318.16;5032113;28;20065;-86
2022/08/21 02:43:07;;;;;;;7.95;4.65;;;18.90;99.90;;;-147.18;100.00;67318.16;5014816;28;20066;-86
2022/08/21 02:45:36;;;;;;;7.38;4.97;;;18.90;99.90;;;-147.18;100.00;67318.16;5023475;28;20092;-85
2022/08/21 02:48:05;;;;;;;8.48;4.80;;;18.80;99.90;;;-147.18;100.00;67318.16;5032127;28;20044;-86
2022/08/21 02:50:38;;;;;;;12.80;5.53;;;18.80;99.90;;;-147.18;100.00;67318.16;5034595;28;20116;-86
2022/08/21 02:53:07;;;;;;;10.27;4.95;;;18.80;99.90;;;-147.18;100.00;67318.16;5030659;28;20045;-86
2022/08/21 02:55:37;;;;;;;10.68;4.43;;;18.80;99.90;;;-147.18;100.00;67318.16;5031855;28;20120;-87
2022/08/21 02:58:07;;;;;;;11.27;4.70;;;18.80;99.90;;;-147.18;100.00;67318.16;5032695;28;20116;-86
2022/08/21 03:00:36;;;;;;;8.80;5.07;;;18.70;99.90;;;-147.18;100.00;67318.16;5030660;28;20041;-87
2022/08/21 03:03:05;;;;;;;9.38;4.90;;;18.70;99.90;;;-147.18;100.00;67318.16;5030897;28;20120;-86
2022/08/21 03:05:34;;;;;;;10.50;5.05;;;18.70;99.90;;;-147.18;100.00;67318.16;5031065;28;20035;-86
2022/08/21 03:08:04;;;;;;;8.73;4.70;;;18.70;99.90;;;-147.18;100.00;67318.16;5032429;28;20537;-86
2022/08/21 03:10:31;;;;;;;8.70;4.72;;;18.70;99.90;;;-147.18;100.00;67318.16;5029127;28;20052;-86
2022/08/21 03:13:00;;;;;;;7.10;4.45;;;18.70;99.90;;;-147.18;100.00;67318.16;5030903;28;20057;-87
2022/08/21 03:15:27;;;;;;;10.55;4.75;;;18.70;99.90;;;-147.18;100.00;67318.16;5030706;28;20135;-86
2022/08/21 03:17:54;;;;;;;11.18;4.93;;;18.70;99.90;;;-147.18;100.00;67318.16;5029810;28;20051;-86
2022/08/21 03:20:27;;;;;;;9.65;4.80;;;18.70;99.90;;;-147.18;100.00;67318.16;5029582;28;20063;-86
2022/08/21 03:22:55;;;;;;;10.45;4.65;;;18.70;99.90;;;-147.18;100.00;67318.16;5030165;28;20053;-86
2022/08/21 03:25:25;;;;;;;10.38;4.60;;;18.70;99.90;;;-147.18;100.00;67318.16;5031178;28;20120;-86
2022/08/21 03:27:52;;;;;;;9.73;4.78;;;18.70;99.90;;;-147.18;100.00;67318.16;5030737;28;20041;-87
2022/08/21 03:30:22;;;;;;;11.23;4.85;;;18.70;99.90;;;-147.18;100.00;67318.16;5031453;28;20052;-86
2022/08/21 03:32:50;;;;;;;9.63;5.03;;;18.70;99.90;;;-147.18;100.00;67318.16;5029300;28;20049;-86
2022/08/21 03:35:18;;;;;;;8.68;4.95;;;18.70;99.90;;;-147.18;100.00;67318.16;5030331;28;20117;-86
2022/08/21 03:37:47;;;;;;;9.00;4.53;;;18.70;99.90;;;-147.18;100.00;67318.16;5031112;28;20133;-86
2022/08/21 03:40:18;;;;;;;7.15;4.20;;;18.70;99.90;;;-147.18;100.00;67318.16;5029792;28;20095;-86
2022/08/21 03:42:46;;;;;;;10.32;4.68;;;18.70;99.90;;;-147.18;100.00;67318.16;5029214;28;20151;-86
2022/08/21 03:45:16;;;;;;;6.72;4.60;;;18.60;99.90;;;-147.18;100.00;67318.16;5029989;28;20045;-86
2022/08/21 03:47:55;;;;;;;9.70;4.68;;;18.60;99.90;;;-147.18;100.00;67318.16;5030753;28;20517;-86
2022/08/21 03:50:23;;;;;;;10.32;5.40;;;18.60;99.90;;;-147.18;100.00;67318.16;5029687;28;20037;-86
2022/08/21 03:52:50;;;;;;;8.70;4.80;;;18.60;99.90;;;-147.18;100.00;67318.16;5029640;28;20045;-85
2022/08/21 03:55:18;;;;;;;10.07;4.95;;;18.60;99.90;;;-147.18;100.00;67318.16;5027539;28;20520;-86
2022/08/21 03:57:45;;;;;;;8.10;4.57;;;18.60;99.90;;;-147.18;100.00;67318.16;5031604;28;20100;-86
2022/08/21 04:00:15;;;;;;;8.38;5.18;;;18.60;99.90;;;-147.18;100.00;67318.16;5029721;28;20417;-86
2022/08/21 04:02:43;;;;;;;10.38;4.57;;;18.60;99.90;;;-147.18;100.00;67318.16;5017790;28;20048;-86
2022/08/21 04:05:26;;;;;;;7.38;4.95;;;18.60;99.90;;;-147.18;100.00;67318.16;5027442;28;20033;-86
2022/08/21 04:07:55;;;;;;;11.18;4.57;;;18.60;99.90;;;-147.18;100.00;67318.16;5029207;28;20037;-86
2022/08/21 04:10:23;;;;;;;9.20;4.53;;;18.50;99.90;;;-147.18;100.00;67318.16;5022269;28;20052;-86
2022/08/21 04:12:50;;;;;;;7.93;4.65;;;18.60;99.90;;;-147.18;100.00;67318.16;5029415;28;20137;-86
2022/08/21 04:15:18;;;;;;;9.93;5.20;;;18.50;99.90;;;-147.18;100.00;67318.16;5024851;28;20045;-86
2022/08/21 04:17:45;;;;;;;11.15;4.88;;;18.50;99.90;;;-147.18;100.00;67318.16;5030485;28;20050;-86
2022/08/21 04:20:13;;;;;;;8.18;4.50;;;18.50;99.90;;;-147.18;100.00;67318.16;5030166;28;20049;-86
2022/08/21 04:22:41;;;;;;;9.18;5.05;;;18.50;99.90;;;-147.18;100.00;67318.16;5030032;28;20029;-86
2022/08/21 04:25:09;;;;;;;8.43;4.60;;;18.50;99.90;;;-147.18;100.00;67318.16;5028722;28;20047;-86
2022/08/21 04:27:36;;;;;;;9.75;4.80;;;18.40;99.90;;;-147.18;100.00;67318.16;5030307;28;20398;-86
2022/08/21 04:30:04;;;;;;;8.05;4.88;;;18.40;99.90;;;-147.18;100.00;67318.16;5028972;28;20049;-86
2022/08/21 04:32:32;;;;;;;10.18;4.85;;;18.40;99.90;;;-147.18;100.00;67318.16;5025215;28;20116;-86
2022/08/21 04:35:05;;;;;;;6.78;4.85;;;18.40;99.90;;;-147.18;100.00;67318.16;5028453;28;20425;-86
2022/08/21 04:37:33;;;;;;;11.85;5.57;;;18.40;99.90;;;-147.18;100.00;67318.16;5035827;28;20404;-85
2022/08/21 04:40:01;;;;;;;11.10;5.90;;;18.40;99.90;;;-147.18;100.00;67318.16;5031293;28;20052;-86
2022/08/21 04:42:29;;;;;;;10.27;5.82;;;18.40;99.90;;;-147.18;100.00;67318.16;5026644;28;20069;-85
2022/08/21 04:44:57;;;;;;;11.25;5.55;;;18.40;99.90;;;-147.18;100.00;67318.16;5026945;28;20466;-86
2022/08/21 04:47:25;;;;;;;12.18;5.55;;;18.40;99.90;;;-147.18;100.00;67318.16;5029357;28;20037;-86
2022/08/21 04:49:52;;;;;;;8.45;5.43;;;18.40;99.90;;;-147.18;100.00;67318.16;5030662;28;20052;-86
2022/08/21 04:52:23;;;;;;;10.38;5.80;;;18.30;99.90;;;-147.18;100.00;67318.16;5020967;28;20044;-86
2022/08/21 04:54:53;;;;;;;10.45;5.60;;;18.40;99.90;;;-147.18;100.00;67318.16;5028977;28;20053;-86
2022/08/21 04:57:20;;;;;;;10.70;5.47;;;18.30;99.90;;;-147.18;100.00;67318.16;5019675;28;20038;-86
2022/08/21 04:59:51;;;;;;;9.45;4.93;;;18.40;99.90;;;-147.18;100.00;67318.16;5028514;28;20041;-86
2022/08/21 05:02:22;;;;;;;10.32;5.40;;;18.40;99.90;;;-147.18;100.00;67318.16;5030758;28;20512;-87
2022/08/21 05:04:53;;;;;;;10.43;5.93;;;18.40;99.90;;;-147.18;100.00;67318.16;5029718;28;20053;-86
2022/08/21 05:07:26;;;;;;;13.85;6.22;;;18.40;99.90;;;-147.18;100.00;67318.16;5028035;28;20048;-86
2022/08/21 05:09:55;;;;;;;15.38;5.75;;;18.40;99.90;;;-147.18;100.00;67318.16;5029257;28;20045;-87
2022/08/21 05:12:23;;;;;;;14.90;7.88;;;18.40;99.90;;;-147.18;100.00;67318.16;5010603;28;20066;-87
2022/08/21 05:14:50;;;;;;;18.42;9.35;;;18.40;99.90;;;-147.18;100.00;67318.16;5015357;28;20041;-86
2022/08/21 05:17:17;;;;;;;17.13;10.48;;;18.40;99.90;;;-147.18;100.00;67318.16;5034334;28;20504;-86
2022/08/21 05:19:46;;;;;;;22.23;12.68;;;18.40;99.90;;;-147.18;100.00;67318.16;5030246;28;20038;-86
2022/08/21 05:22:20;;;;;;;20.77;12.20;;;18.50;99.90;;;-147.18;100.00;67318.16;5028263;28;20045;-86
2022/08/21 05:24:52;;;;;;;25.10;13.38;;;18.50;99.90;;;-147.18;100.00;67318.16;5029077;28;20137;-85
2022/08/21 05:27:20;;;;;;;21.05;13.02;;;18.50;99.90;;;-147.18;100.00;67318.16;5028753;28;20037;-86
2022/08/21 05:29:48;;;;;;;18.17;12.10;;;18.60;99.90;;;-147.18;100.00;67318.16;5027857;28;20049;-86
2022/08/21 05:32:17;;;;;;;22.10;12.55;;;18.60;99.90;;;-147.18;100.00;67318.16;5029372;28;20108;-86
2022/08/21 05:34:45;;;;;;;24.77;13.30;;;18.60;99.90;;;-147.18;100.00;67318.16;5028979;28;20140;-85
2022/08/21 05:37:13;;;;;;;25.58;12.98;;;18.60;99.90;;;-147.18;100.00;67318.16;5021232;28;20076;-86
2022/08/21 05:39:42;;;;;;;22.15;13.32;;;18.70;99.90;;;-147.18;100.00;67318.16;5028858;28;20096;-87
2022/08/21 05:42:10;;;;;;;20.17;12.55;;;18.70;99.90;;;-147.18;100.00;67318.16;5027900;28;20049;-86
2022/08/21 05:44:38;;;;;;;20.70;12.57;;;18.70;99.90;;;-147.18;100.00;67318.16;5032096;28;20146;-89
2022/08/21 05:47:08;;;;;;;21.15;12.45;;;18.80;99.90;;;-147.18;100.00;67318.16;5025784;28;21729;-86
2022/08/21 05:49:36;;;;;;;19.58;11.85;;;18.90;99.90;;;-147.18;100.00;67318.16;5028707;28;20049;-89
2022/08/21 05:52:04;;;;;;;22.65;12.48;;;18.80;99.90;;;-147.18;100.00;67318.16;5027918;28;20046;-90
2022/08/21 05:54:32;;;;;;;20.13;12.02;;;18.90;99.90;;;-147.18;100.00;67318.16;5028559;28;20406;-90
2022/08/21 05:56:59;;;;;;;18.38;11.35;;;18.90;99.90;;;-147.18;100.00;67318.16;5027015;28;20137;-90
2022/08/21 05:59:27;;;;;;;26.60;11.57;;;19.00;99.90;;;-147.18;100.00;67318.16;5033927;28;20095;-89
2022/08/21 06:01:56;;;;;;;18.30;12.02;;;19.00;99.90;;;-147.18;100.00;67318.16;5032955;28;20033;-88
2022/08/21 06:04:23;;;;;;;23.38;12.18;;;19.00;99.90;;;-147.18;100.00;67318.16;5031591;28;20516;-89
2022/08/21 06:06:50;;;;;;;24.10;11.65;;;19.00;99.90;;;-147.18;100.00;67318.16;5030889;28;20562;-92
2022/08/21 06:09:17;;;;;;;17.00;10.60;;;19.10;99.90;;;-147.18;100.00;67318.16;5032612;28;20037;-90
2022/08/21 06:11:45;;;;;;;21.13;11.05;;;19.10;99.90;;;-147.18;100.00;67318.16;5017222;28;20058;-90
2022/08/21 06:14:16;;;;;;;18.90;11.35;;;19.20;99.90;;;-147.18;100.00;67318.16;5031817;28;20052;-89
2022/08/21 06:16:43;;;;;;;21.63;11.52;;;19.20;99.90;;;-147.18;100.00;67318.16;5031187;28;20203;-85
2022/08/21 06:19:13;;;;;;;21.98;11.48;;;19.20;99.90;;;-147.18;100.00;67318.16;5034423;28;20124;-93
2022/08/21 06:21:40;;;;;;;16.30;10.80;;;19.30;99.90;;;-147.18;100.00;67318.16;5034309;28;20042;-93
2022/08/21 06:24:07;;;;;;;17.40;10.07;;;19.30;99.90;;;-147.18;100.00;67318.16;5035324;28;20037;-94
2022/08/21 06:26:35;;;;;;;20.88;9.85;;;19.40;99.90;;;-147.18;100.00;67318.16;5031417;23;20562;-88
2022/08/21 06:29:02;;;;;;;23.48;9.90;;;19.40;99.90;;;-147.18;100.00;67318.16;5035207;28;20064;-90
2022/08/21 06:31:30;;;;;;;21.25;10.50;;;19.50;99.90;;;-147.18;100.00;67318.16;5013716;28;20061;-90
2022/08/21 06:33:57;;;;;;;16.35;10.07;;;19.50;99.90;;;-147.18;100.00;67318.16;5019586;28;20498;-87
2022/08/21 06:36:26;;;;;;;18.60;9.63;;;19.60;99.90;;;-147.18;100.00;67318.16;5018093;28;20037;-89
2022/08/21 06:38:53;;;;;;;17.20;9.15;;;19.60;99.90;;;-147.18;100.00;67318.16;4996326;28;20072;-92
2022/08/21 06:41:21;;;;;;;20.33;9.52;;;19.70;99.90;;;-147.18;100.00;67318.16;4994229;28;20488;-88
2022/08/21 06:43:48;;;;;;;14.23;8.80;;;19.70;99.90;;;-147.18;100.00;67318.16;5005588;28;20125;-88
2022/08/21 06:46:16;;;;;;;18.00;9.00;;;19.80;99.90;;;-147.18;100.00;67318.16;5010159;28;20121;-87
2022/08/21 06:48:43;;;;;;;16.45;8.25;;;19.80;99.90;;;-147.18;100.00;67318.16;4995285;28;20046;-91
2022/08/21 06:51:10;;;;;;;13.80;8.00;;;19.90;99.90;;;-147.18;100.00;67318.16;4994246;28;20077;-89
2022/08/21 06:53:39;;;;;;;18.20;8.48;;;20.00;99.90;;;-147.18;100.00;67318.16;5010199;28;20100;-85
2022/08/21 06:56:06;;;;;;;16.52;7.45;;;20.00;99.90;;;-147.18;100.00;67318.16;5011534;28;20076;-88
2022/08/21 06:58:34;;;;;;;13.35;7.82;;;20.00;99.90;;;-147.18;100.00;67318.16;5012139;28;20030;-86
2022/08/21 07:01:01;;;;;;;13.75;6.97;;;20.10;99.90;;;-147.18;100.00;67318.16;5011873;28;20092;-86
2022/08/21 07:03:34;;;;;;;15.43;7.22;;;20.10;99.90;;;-147.18;100.00;67318.16;5010189;28;20034;-86
2022/08/21 07:06:01;;;;;;;14.88;6.25;;;20.20;99.90;;;-147.18;100.00;67318.16;5011764;28;20120;-86
2022/08/21 07:08:29;;;;;;;18.88;7.35;;;20.20;99.90;;;-147.18;100.00;67318.16;5011650;28;20038;-86
2022/08/21 07:11:01;;;;;;;14.70;6.43;;;20.30;99.90;;;-147.18;100.00;67318.16;5010894;28;20074;-89
2022/08/21 07:13:29;;;;;;;14.18;6.30;;;20.30;99.90;;;-147.18;100.00;67318.16;5009589;28;20117;-87
2022/08/21 07:15:56;;;;;;;21.60;7.25;;;20.30;99.90;;;-147.18;100.00;67318.16;5009847;28;20128;-89
2022/08/21 07:18:23;;;;;;;14.10;6.78;;;20.40;99.90;;;-147.18;100.00;67318.16;5010105;28;20038;-88
2022/08/21 07:20:51;;;;;;;15.00;6.68;;;20.40;99.90;;;-147.18;100.00;67318.16;5010345;28;20056;-89
2022/08/21 07:23:30;;;;;;;12.85;6.30;;;20.50;99.90;;;-147.18;100.00;67318.16;5008260;28;20042;-86
2022/08/21 07:26:00;;;;;;;13.40;6.18;;;20.50;99.90;;;-147.18;100.00;67318.16;4992450;28;20082;-91
2022/08/21 07:28:27;;;;;;;14.23;6.05;;;20.60;99.90;;;-147.18;100.00;67318.16;4993725;28;20133;-90
2022/08/21 07:30:59;;;;;;;14.27;5.07;;;20.60;99.90;;;-147.18;100.00;67318.16;4995026;28;20038;-91
2022/08/21 07:33:30;;;;;;;11.30;5.18;;;20.70;99.90;;;-147.18;100.00;67318.16;5009043;28;20541;-89
2022/08/21 07:35:58;;;;;;;15.95;5.45;;;20.80;99.90;;;-147.18;100.00;67318.16;5002904;28;20251;-84
2022/08/21 07:38:25;;;;;;;17.67;5.05;;;20.80;99.90;;;-147.18;100.00;67318.16;5014737;28;20061;-82
2022/08/21 07:40:55;;;;;;;11.10;4.97;;;20.80;99.90;;;-147.18;100.00;67318.16;5013604;28;20054;-82
2022/08/21 07:43:23;;;;;;;12.93;5.30;;;20.90;99.90;;;-147.18;100.00;67318.16;5009590;28;20162;-82
2022/08/21 07:45:51;;;;;;;15.93;5.70;;;20.90;99.90;;;-147.18;100.00;67318.16;4993605;28;20426;-82
2022/08/21 07:48:18;;;;;;;12.23;5.28;;;21.00;99.90;;;-147.18;100.00;67318.16;5012026;28;20124;-82
2022/08/21 07:50:45;;;;;;;12.50;5.57;;;21.00;99.90;;;-147.18;100.00;67318.16;5011194;28;20053;-82
2022/08/21 07:53:12;;;;;;;15.10;5.53;;;21.10;99.90;;;-147.18;100.00;67318.16;5009600;28;20052;-82
2022/08/21 07:55:40;;;;;;;11.90;4.50;;;21.10;99.90;;;-147.18;100.00;67318.16;5011590;28;20514;-82
2022/08/21 07:58:07;;;;;;;12.15;4.63;;;21.20;99.90;;;-147.18;100.00;67318.16;5009823;28;20049;-82
2022/08/21 08:00:36;;;;;;;9.77;4.25;;;21.20;99.90;;;-147.18;100.00;67318.16;5009472;28;20494;-82
2022/08/21 08:03:03;;;;;;;11.18;4.43;;;21.20;99.90;;;-147.18;100.00;67318.16;5009583;28;20046;-82
2022/08/21 08:05:32;;;;;;;10.73;3.75;;;21.30;99.60;;;-147.18;100.00;67318.16;5011150;28;20046;-82
2022/08/21 08:08:00;;;;;;;8.68;3.72;;;21.30;98.80;;;-147.18;100.00;67318.16;5011601;28;20040;-82
2022/08/21 08:10:28;;;;;;;11.43;4.03;;;21.30;98.40;;;-147.18;100.00;67318.16;5009369;28;20050;-82
2022/08/21 08:12:55;;;;;;;11.25;3.70;;;21.40;99.30;;;-147.18;100.00;67318.16;5007973;28;20096;-82
2022/08/21 08:15:26;;;;;;;10.10;4.05;;;21.40;99.10;;;-147.18;100.00;67318.16;4991510;28;20302;-82
2022/08/21 08:17:55;;;;;;;11.45;3.70;;;21.50;97.80;;;-147.18;100.00;67318.16;5006718;28;20049;-82
2022/08/21 08:20:24;;;;;;;11.63;3.95;;;21.50;97.50;;;-147.18;100.00;67318.16;4992742;28;20068;-82
2022/08/21 08:22:52;;;;;;;13.18;3.67;;;21.60;96.40;;;-147.18;100.00;67318.16;4992980;28;20078;-82
2022/08/21 08:25:20;;;;;;;10.43;3.42;;;21.60;97.70;;;-147.18;100.00;67318.16;4993156;28;20402;-82
2022/08/21 08:27:47;;;;;;;10.63;3.00;;;21.60;96.90;;;-147.18;100.00;67318.16;5011378;28;20140;-82
2022/08/21 08:30:17;;;;;;;6.50;2.70;;;21.70;96.30;;;-147.18;100.00;67318.16;5002270;28;20053;-82
2022/08/21 08:32:45;;;;;;;8.15;3.42;;;21.70;96.20;;;-147.18;100.00;67318.16;5008776;28;20081;-82
2022/08/21 08:35:15;;;;;;;8.60;2.63;;;21.70;95.80;;;-147.18;100.00;67318.16;5010888;28;20204;-82
2022/08/21 08:37:44;;;;;;;5.82;2.60;;;21.80;96.20;;;-147.18;100.00;67318.16;5011320;28;20030;-82
2022/08/21 08:40:14;;;;;;;9.48;3.15;;;21.90;95.70;;;-147.18;100.00;67318.16;5001756;28;20050;-82
2022/08/21 08:42:42;;;;;;;9.68;2.65;;;21.90;95.10;;;-147.18;100.00;67318.16;5009066;28;20398;-82
2022/08/21 08:45:13;;;;;;;10.02;2.70;;;21.90;94.40;;;-147.18;100.00;67318.16;5020702;28;20033;-82
2022/08/21 08:47:45;;;;;;;9.82;2.78;;;22.00;96.00;;;-147.18;100.00;67318.16;5030783;28;20076;-82
2022/08/21 08:50:21;;;;;;;10.43;2.65;;;22.00;93.20;;;-147.18;100.00;67318.16;4989601;28;20056;-82
2022/08/21 08:52:57;;;;;;;8.18;2.75;;;22.10;94.20;;;-147.18;100.00;67318.16;5003673;28;20049;-82
2022/08/21 08:55:33;;;;;;;7.20;2.35;;;22.10;92.50;;;-147.18;100.00;67318.16;5009884;28;20079;-82
2022/08/21 08:58:02;;;;;;;9.70;2.65;;;22.10;92.00;;;-147.18;100.00;67318.16;5010684;28;20422;-82
2022/08/21 09:00:31;;;;;;;8.48;2.88;;;22.30;93.30;;;-147.18;100.00;67318.16;5008692;28;20130;-82
2022/08/21 09:03:03;;;;;;;8.65;2.30;;;22.30;94.00;;;-147.18;100.00;67318.16;5009026;28;20402;-82
2022/08/21 09:05:46;;;;;;;7.80;2.20;;;22.30;95.00;;;-147.18;100.00;67318.16;5009145;28;20541;-82
2022/08/21 09:08:33;;;;;;;6.97;1.95;;;22.40;92.60;;;-147.18;100.00;67318.16;5009629;28;20449;-82
2022/08/21 09:11:05;;;;;;;9.57;2.53;;;22.40;91.30;;;-147.18;100.00;67318.16;5007663;28;20124;-82
2022/08/21 09:13:52;;;;;;;7.07;2.33;;;22.50;91.40;;;-147.18;100.00;67318.16;5008670;28;20076;-82
2022/08/21 09:16:31;;;;;;;7.80;2.20;;;22.60;93.40;;;-147.18;100.00;67318.16;5009684;28;20124;-82
2022/08/21 09:19:08;;;;;;;7.97;2.20;;;22.60;92.20;;;-147.18;100.00;67318.16;5008567;28;20042;-82
2022/08/21 09:21:50;;;;;;;6.43;1.95;;;22.60;91.70;;;-147.18;100.00;67318.16;5007242;28;20462;-82
2022/08/21 09:24:32;;;;;;;8.30;2.17;;;22.70;91.40;;;-147.18;100.00;67318.16;5009439;28;20038;-82
2022/08/21 09:27:07;;;;;;;5.72;1.92;;;22.60;92.10;;;-147.18;100.00;67318.16;5008057;28;20046;-82
2022/08/21 09:29:38;;;;;;;8.82;2.15;;;22.60;90.40;;;-147.18;100.00;67318.16;4985960;28;20053;-82
2022/08/21 09:32:18;;;;;;;9.20;2.20;;;22.60;90.60;;;-147.18;100.00;67318.16;5010328;28;20042;-82
2022/08/21 09:34:59;;;;;;;10.52;2.42;;;22.60;90.90;;;-147.18;100.00;67318.16;5018086;28;20065;-92
2022/08/21 09:37:29;;;;;;;8.00;2.28;;;22.60;91.60;;;-147.18;100.00;67318.16;5010219;28;20030;-93
2022/08/21 09:39:58;;;;;;;7.07;1.90;;;22.60;89.50;;;-147.18;100.00;67318.16;4997595;28;20132;-89
2022/08/21 09:42:28;;;;;;;6.70;2.03;;;22.60;90.20;;;-147.18;100.00;67318.16;4998461;28;20441;-92
2022/08/21 09:45:16;;;;;;;8.63;2.42;;;22.60;89.10;;;-147.18;100.00;67318.16;5011657;28;20041;-90
2022/08/21 09:47:45;;;;;;;6.70;2.00;;;22.70;89.10;;;-147.18;100.00;67318.16;4995034;28;20141;-92
2022/08/21 09:50:17;;;;;;;9.63;2.05;;;22.80;90.10;;;-147.18;100.00;67318.16;5003241;28;20041;-90
2022/08/21 09:52:51;;;;;;;6.95;2.20;;;22.80;89.40;;;-147.18;100.00;67318.16;5010540;28;20034;-89
2022/08/21 09:58:14;;;;;;;6.85;1.85;;;23.00;87.60;;;-147.18;100.00;67318.16;4990992;28;20428;-90
2022/08/21 10:00:41;;;;;;;7.50;2.00;;;23.00;86.90;;;-147.18;100.00;67318.16;4992973;28;20045;-89
2022/08/21 10:03:18;;;;;;;6.25;2.13;;;22.90;87.90;;;-147.18;100.00;67318.16;4997457;28;20200;-90
2022/08/21 10:05:57;;;;;;;7.35;1.58;;;23.00;88.60;;;-147.18;100.00;67318.16;4993948;28;20384;-89
2022/08/21 10:08:29;;;;;;;5.28;1.73;;;23.00;86.80;;;-147.18;100.00;67318.16;5011202;28;20066;-89